sensor_id;sensor_type;location;lat;lon;timestamp;P1;durP1;ratioP1;P2;durP2;ratioP2
11086;SDS011;5597;47.588;9.642;2023-03-11T00:00:05;2.23;;;1.53;;
11086;SDS011;5597;47.588;9.642;2023-03-11T00:02:37;1.80;;;1.47;;
11086;SDS011;5597;47.588;9.642;2023-03-11T00:05:02;1.97;;;1.50;;
11086;SDS011;5597;47.588;9.642;2023-03-11T00:07:28;2.13;;;1.40;;
11086;SDS011;5597;47.588;9.642;2023-03-11T00:09:54;2.00;;;1.60;;
11086;SDS011;5597;47.588;9.642;2023-03-11T00:12:19;1.60;;;1.50;;
11086;SDS011;5597;47.588;9.642;2023-03-11T00:14:46;2.27;;;1.50;;
11086;SDS011;5597;47.588;9.642;2023-03-11T00:17:11;1.60;;;1.50;;
11086;SDS011;5597;47.588;9.642;2023-03-11T00:19:37;1.50;;;1.40;;
11086;SDS011;5597;47.588;9.642;2023-03-11T00:22:02;1.93;;;1.47;;
11086;SDS011;5597;47.588;9.642;2023-03-11T00:24:28;2.17;;;1.60;;
11086;SDS011;5597;47.588;9.642;2023-03-11T00:26:53;2.90;;;1.73;;
11086;SDS011;5597;47.588;9.642;2023-03-11T00:29:19;1.53;;;1.40;;
11086;SDS011;5597;47.588;9.642;2023-03-11T00:31:44;2.07;;;1.63;;
11086;SDS011;5597;47.588;9.642;2023-03-11T00:34:10;1.87;;;1.60;;
11086;SDS011;5597;47.588;9.642;2023-03-11T00:36:35;1.87;;;1.73;;
11086;SDS011;5597;47.588;9.642;2023-03-11T00:39:02;2.50;;;1.87;;
11086;SDS011;5597;47.588;9.642;2023-03-11T00:41:32;2.40;;;2.20;;
11086;SDS011;5597;47.588;9.642;2023-03-11T00:43:58;1.80;;;1.70;;
11086;SDS011;5597;47.588;9.642;2023-03-11T00:46:24;3.07;;;2.00;;
11086;SDS011;5597;47.588;9.642;2023-03-11T00:48:50;2.10;;;1.90;;
11086;SDS011;5597;47.588;9.642;2023-03-11T00:51:16;3.63;;;1.93;;
11086;SDS011;5597;47.588;9.642;2023-03-11T00:53:42;3.43;;;2.27;;
11086;SDS011;5597;47.588;9.642;2023-03-11T00:56:09;3.70;;;1.87;;
11086;SDS011;5597;47.588;9.642;2023-03-11T00:58:35;1.90;;;1.80;;
11086;SDS011;5597;47.588;9.642;2023-03-11T01:01:08;2.43;;;2.10;;
11086;SDS011;5597;47.588;9.642;2023-03-11T01:03:35;3.17;;;2.10;;
11086;SDS011;5597;47.588;9.642;2023-03-11T01:06:01;2.80;;;2.07;;
11086;SDS011;5597;47.588;9.642;2023-03-11T01:08:27;2.40;;;2.20;;
11086;SDS011;5597;47.588;9.642;2023-03-11T01:10:54;2.63;;;2.10;;
11086;SDS011;5597;47.588;9.642;2023-03-11T01:13:20;2.50;;;2.20;;
11086;SDS011;5597;47.588;9.642;2023-03-11T01:15:45;2.30;;;2.10;;
11086;SDS011;5597;47.588;9.642;2023-03-11T01:18:11;2.20;;;2.00;;
11086;SDS011;5597;47.588;9.642;2023-03-11T01:20:38;3.10;;;2.33;;
11086;SDS011;5597;47.588;9.642;2023-03-11T01:23:04;2.80;;;2.47;;
11086;SDS011;5597;47.588;9.642;2023-03-11T01:25:31;2.47;;;2.27;;
11086;SDS011;5597;47.588;9.642;2023-03-11T01:27:57;3.17;;;2.23;;
11086;SDS011;5597;47.588;9.642;2023-03-11T01:30:23;2.57;;;2.17;;
11086;SDS011;5597;47.588;9.642;2023-03-11T01:32:51;2.47;;;2.00;;
11086;SDS011;5597;47.588;9.642;2023-03-11T01:35:18;2.40;;;2.20;;
11086;SDS011;5597;47.588;9.642;2023-03-11T01:37:45;2.87;;;2.13;;
11086;SDS011;5597;47.588;9.642;2023-03-11T01:40:19;2.67;;;2.47;;
11086;SDS011;5597;47.588;9.642;2023-03-11T01:42:49;2.37;;;2.17;;
11086;SDS011;5597;47.588;9.642;2023-03-11T01:47:52;3.50;;;2.63;;
11086;SDS011;5597;47.588;9.642;2023-03-11T01:50:18;2.50;;;2.30;;
11086;SDS011;5597;47.588;9.642;2023-03-11T01:52:44;4.10;;;2.50;;
11086;SDS011;5597;47.588;9.642;2023-03-11T01:55:10;3.00;;;2.70;;
11086;SDS011;5597;47.588;9.642;2023-03-11T01:57:37;3.47;;;2.47;;
11086;SDS011;5597;47.588;9.642;2023-03-11T02:00:06;2.80;;;2.50;;
11086;SDS011;5597;47.588;9.642;2023-03-11T02:02:35;2.67;;;2.40;;
11086;SDS011;5597;47.588;9.642;2023-03-11T02:05:05;2.83;;;2.60;;
11086;SDS011;5597;47.588;9.642;2023-03-11T02:07:31;3.03;;;2.43;;
11086;SDS011;5597;47.588;9.642;2023-03-11T02:09:56;2.50;;;2.30;;
11086;SDS011;5597;47.588;9.642;2023-03-11T02:12:22;2.87;;;2.63;;
11086;SDS011;5597;47.588;9.642;2023-03-11T02:14:49;2.53;;;2.17;;
11086;SDS011;5597;47.588;9.642;2023-03-11T02:17:17;2.50;;;2.30;;
11086;SDS011;5597;47.588;9.642;2023-03-11T02:22:30;2.77;;;2.57;;
11086;SDS011;5597;47.588;9.642;2023-03-11T02:25:02;3.00;;;2.50;;
11086;SDS011;5597;47.588;9.642;2023-03-11T02:27:37;2.70;;;2.50;;
11086;SDS011;5597;47.588;9.642;2023-03-11T02:30:05;2.83;;;2.63;;
11086;SDS011;5597;47.588;9.642;2023-03-11T02:32:33;3.90;;;2.87;;
11086;SDS011;5597;47.588;9.642;2023-03-11T02:34:59;3.00;;;2.60;;
11086;SDS011;5597;47.588;9.642;2023-03-11T02:37:24;3.17;;;2.77;;
11086;SDS011;5597;47.588;9.642;2023-03-11T02:39:51;2.93;;;2.57;;
11086;SDS011;5597;47.588;9.642;2023-03-11T02:42:21;2.83;;;2.57;;
11086;SDS011;5597;47.588;9.642;2023-03-11T02:45:00;2.67;;;2.33;;
11086;SDS011;5597;47.588;9.642;2023-03-11T02:47:29;3.13;;;2.80;;
11086;SDS011;5597;47.588;9.642;2023-03-11T02:49:56;2.70;;;2.50;;
11086;SDS011;5597;47.588;9.642;2023-03-11T02:52:23;3.30;;;2.77;;
11086;SDS011;5597;47.588;9.642;2023-03-11T02:54:51;2.57;;;2.30;;
11086;SDS011;5597;47.588;9.642;2023-03-11T02:57:17;2.90;;;2.60;;
11086;SDS011;5597;47.588;9.642;2023-03-11T02:59:42;2.80;;;2.50;;
11086;SDS011;5597;47.588;9.642;2023-03-11T03:02:08;2.57;;;2.30;;
11086;SDS011;5597;47.588;9.642;2023-03-11T03:04:33;3.00;;;2.60;;
11086;SDS011;5597;47.588;9.642;2023-03-11T03:06:59;2.40;;;2.20;;
11086;SDS011;5597;47.588;9.642;2023-03-11T03:09:24;3.27;;;2.97;;
11086;SDS011;5597;47.588;9.642;2023-03-11T03:11:50;2.93;;;2.63;;
11086;SDS011;5597;47.588;9.642;2023-03-11T03:14:16;2.70;;;2.30;;
11086;SDS011;5597;47.588;9.642;2023-03-11T03:16:41;2.70;;;2.50;;
11086;SDS011;5597;47.588;9.642;2023-03-11T03:19:07;1.97;;;1.83;;
11086;SDS011;5597;47.588;9.642;2023-03-11T03:21:32;2.30;;;2.10;;
11086;SDS011;5597;47.588;9.642;2023-03-11T03:23:58;1.97;;;1.73;;
11086;SDS011;5597;47.588;9.642;2023-03-11T03:26:23;2.27;;;2.07;;
11086;SDS011;5597;47.588;9.642;2023-03-11T03:28:49;1.90;;;1.80;;
11086;SDS011;5597;47.588;9.642;2023-03-11T03:31:14;2.10;;;1.93;;
11086;SDS011;5597;47.588;9.642;2023-03-11T03:33:40;2.00;;;1.90;;
11086;SDS011;5597;47.588;9.642;2023-03-11T03:36:09;2.10;;;1.90;;
11086;SDS011;5597;47.588;9.642;2023-03-11T03:38:42;1.90;;;1.80;;
11086;SDS011;5597;47.588;9.642;2023-03-11T03:41:08;2.03;;;1.83;;
11086;SDS011;5597;47.588;9.642;2023-03-11T03:43:33;1.90;;;1.70;;
11086;SDS011;5597;47.588;9.642;2023-03-11T03:46:00;1.73;;;1.60;;
11086;SDS011;5597;47.588;9.642;2023-03-11T03:48:28;1.70;;;1.60;;
11086;SDS011;5597;47.588;9.642;2023-03-11T03:50:54;1.50;;;1.40;;
11086;SDS011;5597;47.588;9.642;2023-03-11T03:53:20;1.60;;;1.50;;
11086;SDS011;5597;47.588;9.642;2023-03-11T03:55:45;2.10;;;1.90;;
11086;SDS011;5597;47.588;9.642;2023-03-11T03:58:11;1.70;;;1.60;;
11086;SDS011;5597;47.588;9.642;2023-03-11T04:00:37;2.10;;;1.90;;
11086;SDS011;5597;47.588;9.642;2023-03-11T04:03:03;1.83;;;1.73;;
11086;SDS011;5597;47.588;9.642;2023-03-11T04:05:29;2.20;;;2.00;;
11086;SDS011;5597;47.588;9.642;2023-03-11T04:07:54;2.00;;;1.90;;
11086;SDS011;5597;47.588;9.642;2023-03-11T04:10:20;2.30;;;2.10;;
11086;SDS011;5597;47.588;9.642;2023-03-11T04:12:46;2.50;;;2.30;;
11086;SDS011;5597;47.588;9.642;2023-03-11T04:15:11;2.40;;;2.20;;
11086;SDS011;5597;47.588;9.642;2023-03-11T04:17:37;3.40;;;2.20;;
11086;SDS011;5597;47.588;9.642;2023-03-11T04:20:03;2.30;;;2.00;;
11086;SDS011;5597;47.588;9.642;2023-03-11T04:22:32;2.40;;;2.20;;
11086;SDS011;5597;47.588;9.642;2023-03-11T04:24:58;3.03;;;2.20;;
11086;SDS011;5597;47.588;9.642;2023-03-11T04:27:23;2.07;;;1.87;;
11086;SDS011;5597;47.588;9.642;2023-03-11T04:29:49;3.10;;;2.40;;
11086;SDS011;5597;47.588;9.642;2023-03-11T04:32:15;2.83;;;2.10;;
11086;SDS011;5597;47.588;9.642;2023-03-11T04:34:40;2.60;;;2.40;;
11086;SDS011;5597;47.588;9.642;2023-03-11T04:37:06;2.90;;;2.50;;
11086;SDS011;5597;47.588;9.642;2023-03-11T04:39:32;2.50;;;2.10;;
11086;SDS011;5597;47.588;9.642;2023-03-11T04:41:57;3.00;;;2.50;;
11086;SDS011;5597;47.588;9.642;2023-03-11T04:44:23;2.07;;;1.87;;
11086;SDS011;5597;47.588;9.642;2023-03-11T04:46:49;2.10;;;1.80;;
11086;SDS011;5597;47.588;9.642;2023-03-11T04:49:14;2.50;;;1.90;;
11086;SDS011;5597;47.588;9.642;2023-03-11T04:51:40;2.30;;;1.97;;
11086;SDS011;5597;47.588;9.642;2023-03-11T04:54:05;2.17;;;1.97;;
11086;SDS011;5597;47.588;9.642;2023-03-11T04:56:31;2.03;;;1.83;;
11086;SDS011;5597;47.588;9.642;2023-03-11T04:58:57;1.93;;;1.70;;
11086;SDS011;5597;47.588;9.642;2023-03-11T05:01:22;1.90;;;1.67;;
11086;SDS011;5597;47.588;9.642;2023-03-11T05:03:48;1.70;;;1.50;;
11086;SDS011;5597;47.588;9.642;2023-03-11T05:06:14;2.00;;;1.90;;
11086;SDS011;5597;47.588;9.642;2023-03-11T05:08:39;1.70;;;1.60;;
11086;SDS011;5597;47.588;9.642;2023-03-11T05:11:05;1.90;;;1.70;;
11086;SDS011;5597;47.588;9.642;2023-03-11T05:13:31;2.17;;;1.70;;
11086;SDS011;5597;47.588;9.642;2023-03-11T05:15:56;1.90;;;1.80;;
11086;SDS011;5597;47.588;9.642;2023-03-11T05:18:22;1.70;;;1.60;;
11086;SDS011;5597;47.588;9.642;2023-03-11T05:20:48;1.93;;;1.70;;
11086;SDS011;5597;47.588;9.642;2023-03-11T05:23:13;1.93;;;1.73;;
11086;SDS011;5597;47.588;9.642;2023-03-11T05:25:39;1.83;;;1.60;;
11086;SDS011;5597;47.588;9.642;2023-03-11T05:28:04;1.60;;;1.50;;
11086;SDS011;5597;47.588;9.642;2023-03-11T05:30:30;2.10;;;1.90;;
11086;SDS011;5597;47.588;9.642;2023-03-11T05:32:56;2.27;;;1.80;;
11086;SDS011;5597;47.588;9.642;2023-03-11T05:35:21;2.33;;;1.97;;
11086;SDS011;5597;47.588;9.642;2023-03-11T05:37:47;1.70;;;1.60;;
11086;SDS011;5597;47.588;9.642;2023-03-11T05:40:14;2.07;;;1.87;;
11086;SDS011;5597;47.588;9.642;2023-03-11T05:42:40;2.10;;;1.90;;
11086;SDS011;5597;47.588;9.642;2023-03-11T05:45:06;2.93;;;2.63;;
11086;SDS011;5597;47.588;9.642;2023-03-11T05:47:32;2.80;;;2.60;;
11086;SDS011;5597;47.588;9.642;2023-03-11T05:49:58;2.40;;;2.20;;
11086;SDS011;5597;47.588;9.642;2023-03-11T05:52:24;2.40;;;2.20;;
11086;SDS011;5597;47.588;9.642;2023-03-11T05:54:50;2.30;;;2.10;;
11086;SDS011;5597;47.588;9.642;2023-03-11T05:57:17;2.07;;;1.87;;
11086;SDS011;5597;47.588;9.642;2023-03-11T05:59:43;2.17;;;1.97;;
11086;SDS011;5597;47.588;9.642;2023-03-11T06:02:08;1.97;;;1.87;;
11086;SDS011;5597;47.588;9.642;2023-03-11T06:04:34;2.40;;;2.20;;
11086;SDS011;5597;47.588;9.642;2023-03-11T06:07:00;2.30;;;2.10;;
11086;SDS011;5597;47.588;9.642;2023-03-11T06:09:26;3.10;;;2.80;;
11086;SDS011;5597;47.588;9.642;2023-03-11T06:11:51;3.07;;;2.77;;
11086;SDS011;5597;47.588;9.642;2023-03-11T06:14:17;4.00;;;3.13;;
11086;SDS011;5597;47.588;9.642;2023-03-11T06:16:42;3.90;;;3.30;;
11086;SDS011;5597;47.588;9.642;2023-03-11T06:19:08;3.23;;;2.60;;
11086;SDS011;5597;47.588;9.642;2023-03-11T06:21:34;3.10;;;2.80;;
11086;SDS011;5597;47.588;9.642;2023-03-11T06:24:00;3.03;;;2.50;;
11086;SDS011;5597;47.588;9.642;2023-03-11T06:26:25;2.97;;;2.70;;
11086;SDS011;5597;47.588;9.642;2023-03-11T06:28:51;4.17;;;2.30;;
11086;SDS011;5597;47.588;9.642;2023-03-11T06:31:21;2.90;;;2.33;;
11086;SDS011;5597;47.588;9.642;2023-03-11T06:33:51;2.30;;;2.00;;
11086;SDS011;5597;47.588;9.642;2023-03-11T06:36:17;3.13;;;2.30;;
11086;SDS011;5597;47.588;9.642;2023-03-11T06:38:44;2.43;;;1.83;;
11086;SDS011;5597;47.588;9.642;2023-03-11T06:41:10;2.37;;;2.17;;
11086;SDS011;5597;47.588;9.642;2023-03-11T06:43:36;2.67;;;2.00;;
11086;SDS011;5597;47.588;9.642;2023-03-11T06:46:09;2.17;;;1.90;;
11086;SDS011;5597;47.588;9.642;2023-03-11T06:48:37;3.03;;;2.30;;
11086;SDS011;5597;47.588;9.642;2023-03-11T06:51:03;1.93;;;1.70;;
11086;SDS011;5597;47.588;9.642;2023-03-11T06:53:29;3.30;;;1.87;;
11086;SDS011;5597;47.588;9.642;2023-03-11T06:58:29;2.37;;;2.17;;
11086;SDS011;5597;47.588;9.642;2023-03-11T07:00:59;2.10;;;1.90;;
11086;SDS011;5597;47.588;9.642;2023-03-11T07:03:26;2.80;;;2.30;;
11086;SDS011;5597;47.588;9.642;2023-03-11T07:05:52;3.53;;;1.97;;
11086;SDS011;5597;47.588;9.642;2023-03-11T07:08:17;2.37;;;2.13;;
11086;SDS011;5597;47.588;9.642;2023-03-11T07:10:43;3.20;;;1.93;;
11086;SDS011;5597;47.588;9.642;2023-03-11T07:13:09;2.53;;;2.00;;
11086;SDS011;5597;47.588;9.642;2023-03-11T07:15:34;1.80;;;1.50;;
11086;SDS011;5597;47.588;9.642;2023-03-11T07:18:00;1.90;;;1.60;;
11086;SDS011;5597;47.588;9.642;2023-03-11T07:20:25;1.97;;;1.53;;
11086;SDS011;5597;47.588;9.642;2023-03-11T07:22:51;2.87;;;2.00;;
11086;SDS011;5597;47.588;9.642;2023-03-11T07:25:17;1.83;;;1.70;;
11086;SDS011;5597;47.588;9.642;2023-03-11T07:27:43;3.43;;;3.10;;
11086;SDS011;5597;47.588;9.642;2023-03-11T07:30:09;2.40;;;2.13;;
11086;SDS011;5597;47.588;9.642;2023-03-11T07:32:35;5.60;;;3.73;;
11086;SDS011;5597;47.588;9.642;2023-03-11T07:35:00;3.43;;;3.10;;
11086;SDS011;5597;47.588;9.642;2023-03-11T07:37:26;3.63;;;2.63;;
11086;SDS011;5597;47.588;9.642;2023-03-11T07:39:51;2.03;;;1.80;;
11086;SDS011;5597;47.588;9.642;2023-03-11T07:42:17;2.47;;;1.80;;
11086;SDS011;5597;47.588;9.642;2023-03-11T07:44:43;2.47;;;1.80;;
11086;SDS011;5597;47.588;9.642;2023-03-11T07:47:08;1.93;;;1.63;;
11086;SDS011;5597;47.588;9.642;2023-03-11T07:49:34;2.30;;;1.60;;
11086;SDS011;5597;47.588;9.642;2023-03-11T07:52:00;1.77;;;1.60;;
11086;SDS011;5597;47.588;9.642;2023-03-11T07:54:25;2.40;;;1.90;;
11086;SDS011;5597;47.588;9.642;2023-03-11T07:56:51;2.50;;;2.03;;
11086;SDS011;5597;47.588;9.642;2023-03-11T07:59:16;1.83;;;1.70;;
11086;SDS011;5597;47.588;9.642;2023-03-11T08:01:42;2.20;;;1.90;;
11086;SDS011;5597;47.588;9.642;2023-03-11T08:04:11;2.37;;;2.00;;
11086;SDS011;5597;47.588;9.642;2023-03-11T08:06:38;1.70;;;1.60;;
11086;SDS011;5597;47.588;9.642;2023-03-11T08:09:07;1.50;;;1.40;;
11086;SDS011;5597;47.588;9.642;2023-03-11T08:11:34;1.60;;;1.23;;
11086;SDS011;5597;47.588;9.642;2023-03-11T08:14:00;1.43;;;1.23;;
11086;SDS011;5597;47.588;9.642;2023-03-11T08:16:27;1.33;;;1.00;;
11086;SDS011;5597;47.588;9.642;2023-03-11T08:18:52;1.37;;;1.20;;
11086;SDS011;5597;47.588;9.642;2023-03-11T08:21:19;1.47;;;1.30;;
11086;SDS011;5597;47.588;9.642;2023-03-11T08:23:47;1.70;;;1.40;;
11086;SDS011;5597;47.588;9.642;2023-03-11T08:26:14;3.10;;;2.80;;
11086;SDS011;5597;47.588;9.642;2023-03-11T08:28:42;2.97;;;2.67;;
11086;SDS011;5597;47.588;9.642;2023-03-11T08:31:18;2.77;;;1.90;;
11086;SDS011;5597;47.588;9.642;2023-03-11T08:33:47;2.17;;;1.67;;
11086;SDS011;5597;47.588;9.642;2023-03-11T08:36:14;1.27;;;1.07;;
11086;SDS011;5597;47.588;9.642;2023-03-11T08:38:40;1.03;;;0.93;;
11086;SDS011;5597;47.588;9.642;2023-03-11T08:41:05;1.37;;;1.00;;
11086;SDS011;5597;47.588;9.642;2023-03-11T08:43:31;1.70;;;1.00;;
11086;SDS011;5597;47.588;9.642;2023-03-11T08:45:59;1.40;;;1.30;;
11086;SDS011;5597;47.588;9.642;2023-03-11T08:48:25;1.60;;;1.10;;
11086;SDS011;5597;47.588;9.642;2023-03-11T08:50:52;1.20;;;1.10;;
11086;SDS011;5597;47.588;9.642;2023-03-11T08:53:17;1.20;;;1.10;;
11086;SDS011;5597;47.588;9.642;2023-03-11T08:55:46;1.33;;;1.00;;
11086;SDS011;5597;47.588;9.642;2023-03-11T08:58:11;1.57;;;1.00;;
11086;SDS011;5597;47.588;9.642;2023-03-11T09:00:37;1.87;;;1.20;;
11086;SDS011;5597;47.588;9.642;2023-03-11T09:03:03;1.83;;;1.10;;
11086;SDS011;5597;47.588;9.642;2023-03-11T09:05:28;1.87;;;1.00;;
11086;SDS011;5597;47.588;9.642;2023-03-11T09:07:54;1.00;;;0.90;;
11086;SDS011;5597;47.588;9.642;2023-03-11T09:10:20;1.23;;;1.00;;
11086;SDS011;5597;47.588;9.642;2023-03-11T09:12:45;1.00;;;0.90;;
11086;SDS011;5597;47.588;9.642;2023-03-11T09:15:11;1.07;;;0.90;;
11086;SDS011;5597;47.588;9.642;2023-03-11T09:17:36;1.10;;;0.90;;
11086;SDS011;5597;47.588;9.642;2023-03-11T09:20:02;1.33;;;0.97;;
11086;SDS011;5597;47.588;9.642;2023-03-11T09:22:28;1.87;;;1.53;;
11086;SDS011;5597;47.588;9.642;2023-03-11T09:24:55;2.20;;;1.53;;
11086;SDS011;5597;47.588;9.642;2023-03-11T09:27:21;1.97;;;1.20;;
11086;SDS011;5597;47.588;9.642;2023-03-11T09:29:46;2.27;;;1.50;;
11086;SDS011;5597;47.588;9.642;2023-03-11T09:32:12;1.53;;;1.37;;
11086;SDS011;5597;47.588;9.642;2023-03-11T09:34:38;1.67;;;1.10;;
11086;SDS011;5597;47.588;9.642;2023-03-11T09:37:04;1.10;;;0.83;;
11086;SDS011;5597;47.588;9.642;2023-03-11T09:39:30;1.10;;;0.90;;
11086;SDS011;5597;47.588;9.642;2023-03-11T09:41:57;1.63;;;0.80;;
11086;SDS011;5597;47.588;9.642;2023-03-11T09:44:36;1.07;;;0.90;;
11086;SDS011;5597;47.588;9.642;2023-03-11T09:53:01;3.67;;;2.50;;
11086;SDS011;5597;47.588;9.642;2023-03-11T09:59:08;2.10;;;1.00;;
11086;SDS011;5597;47.588;9.642;2023-03-11T10:03:48;1.87;;;1.00;;
11086;SDS011;5597;47.588;9.642;2023-03-11T10:06:21;1.30;;;1.00;;
11086;SDS011;5597;47.588;9.642;2023-03-11T10:08:51;2.20;;;1.20;;
11086;SDS011;5597;47.588;9.642;2023-03-11T10:22:43;1.20;;;1.10;;
11086;SDS011;5597;47.588;9.642;2023-03-11T10:25:41;2.00;;;1.10;;
11086;SDS011;5597;47.588;9.642;2023-03-11T10:28:05;1.43;;;1.20;;
11086;SDS011;5597;47.588;9.642;2023-03-11T10:30:40;2.47;;;1.53;;
11086;SDS011;5597;47.588;9.642;2023-03-11T10:36:07;2.47;;;1.30;;
11086;SDS011;5597;47.588;9.642;2023-03-11T10:38:38;2.50;;;1.40;;
11086;SDS011;5597;47.588;9.642;2023-03-11T10:41:27;1.70;;;1.10;;
11086;SDS011;5597;47.588;9.642;2023-03-11T10:44:13;1.70;;;1.20;;
11086;SDS011;5597;47.588;9.642;2023-03-11T10:46:47;2.00;;;1.33;;
11086;SDS011;5597;47.588;9.642;2023-03-11T10:49:14;1.30;;;1.20;;
11086;SDS011;5597;47.588;9.642;2023-03-11T10:51:40;2.77;;;1.60;;
11086;SDS011;5597;47.588;9.642;2023-03-11T10:54:19;1.13;;;1.03;;
11086;SDS011;5597;47.588;9.642;2023-03-11T10:57:04;2.53;;;1.20;;
11086;SDS011;5597;47.588;9.642;2023-03-11T11:02:31;1.20;;;1.10;;
11086;SDS011;5597;47.588;9.642;2023-03-11T11:07:31;1.77;;;1.30;;
11086;SDS011;5597;47.588;9.642;2023-03-11T11:10:32;1.47;;;1.30;;
11086;SDS011;5597;47.588;9.642;2023-03-11T11:15:29;2.07;;;1.27;;
11086;SDS011;5597;47.588;9.642;2023-03-11T11:18:05;1.83;;;1.30;;
11086;SDS011;5597;47.588;9.642;2023-03-11T11:20:51;1.90;;;1.40;;
11086;SDS011;5597;47.588;9.642;2023-03-11T11:23:23;2.00;;;1.20;;
11086;SDS011;5597;47.588;9.642;2023-03-11T11:26:04;1.80;;;1.20;;
11086;SDS011;5597;47.588;9.642;2023-03-11T11:28:37;2.83;;;1.30;;
11086;SDS011;5597;47.588;9.642;2023-03-11T11:31:04;1.97;;;1.30;;
11086;SDS011;5597;47.588;9.642;2023-03-11T11:33:50;1.20;;;1.10;;
11086;SDS011;5597;47.588;9.642;2023-03-11T11:36:17;1.60;;;1.37;;
11086;SDS011;5597;47.588;9.642;2023-03-11T11:38:44;1.73;;;1.27;;
11086;SDS011;5597;47.588;9.642;2023-03-11T11:41:17;1.90;;;1.20;;
11086;SDS011;5597;47.588;9.642;2023-03-11T11:46:43;3.27;;;1.40;;
11086;SDS011;5597;47.588;9.642;2023-03-11T11:54:49;2.40;;;1.20;;
11086;SDS011;5597;47.588;9.642;2023-03-11T11:56:56;1.40;;;1.27;;
11086;SDS011;5597;47.588;9.642;2023-03-11T11:59:22;1.00;;;0.87;;
11086;SDS011;5597;47.588;9.642;2023-03-11T12:01:52;1.13;;;0.93;;
11086;SDS011;5597;47.588;9.642;2023-03-11T12:10:11;1.50;;;1.10;;
11086;SDS011;5597;47.588;9.642;2023-03-11T12:12:48;1.23;;;1.10;;
11086;SDS011;5597;47.588;9.642;2023-03-11T12:15:26;1.27;;;1.00;;
11086;SDS011;5597;47.588;9.642;2023-03-11T12:17:58;1.87;;;1.10;;
11086;SDS011;5597;47.588;9.642;2023-03-11T12:26:19;1.07;;;0.90;;
11086;SDS011;5597;47.588;9.642;2023-03-11T12:31:26;0.80;;;0.80;;
11086;SDS011;5597;47.588;9.642;2023-03-11T12:36:36;1.57;;;1.10;;
11086;SDS011;5597;47.588;9.642;2023-03-11T12:39:05;1.43;;;1.00;;
11086;SDS011;5597;47.588;9.642;2023-03-11T12:41:43;2.50;;;1.20;;
11086;SDS011;5597;47.588;9.642;2023-03-11T12:44:25;1.33;;;1.10;;
11086;SDS011;5597;47.588;9.642;2023-03-11T12:49:22;1.70;;;1.30;;
11086;SDS011;5597;47.588;9.642;2023-03-11T12:52:02;1.77;;;1.50;;
11086;SDS011;5597;47.588;9.642;2023-03-11T12:54:40;2.57;;;1.20;;
11086;SDS011;5597;47.588;9.642;2023-03-11T12:57:41;1.60;;;1.40;;
11086;SDS011;5597;47.588;9.642;2023-03-11T13:08:52;3.20;;;1.67;;
11086;SDS011;5597;47.588;9.642;2023-03-11T13:16:40;1.67;;;1.20;;
11086;SDS011;5597;47.588;9.642;2023-03-11T13:21:52;1.53;;;1.33;;
11086;SDS011;5597;47.588;9.642;2023-03-11T13:26:50;1.70;;;1.40;;
11086;SDS011;5597;47.588;9.642;2023-03-11T13:34:45;2.30;;;1.20;;
11086;SDS011;5597;47.588;9.642;2023-03-11T13:37:23;2.03;;;1.20;;
11086;SDS011;5597;47.588;9.642;2023-03-11T13:42:53;1.50;;;1.27;;
11086;SDS011;5597;47.588;9.642;2023-03-11T13:45:29;1.60;;;1.37;;
11086;SDS011;5597;47.588;9.642;2023-03-11T13:48:20;1.20;;;1.10;;
11086;SDS011;5597;47.588;9.642;2023-03-11T13:50:54;2.40;;;1.30;;
11086;SDS011;5597;47.588;9.642;2023-03-11T13:53:34;1.73;;;1.50;;
11086;SDS011;5597;47.588;9.642;2023-03-11T13:56:29;1.20;;;1.10;;
11086;SDS011;5597;47.588;9.642;2023-03-11T14:01:53;1.60;;;1.50;;
11086;SDS011;5597;47.588;9.642;2023-03-11T14:04:39;1.57;;;1.47;;
11086;SDS011;5597;47.588;9.642;2023-03-11T14:07:33;2.17;;;1.50;;
11086;SDS011;5597;47.588;9.642;2023-03-11T14:12:43;1.63;;;1.40;;
11086;SDS011;5597;47.588;9.642;2023-03-11T14:15:22;1.53;;;1.43;;
11086;SDS011;5597;47.588;9.642;2023-03-11T14:17:50;1.43;;;1.33;;
11086;SDS011;5597;47.588;9.642;2023-03-11T14:20:21;1.60;;;1.50;;
11086;SDS011;5597;47.588;9.642;2023-03-11T14:22:53;2.17;;;1.30;;
11086;SDS011;5597;47.588;9.642;2023-03-11T14:25:24;1.70;;;1.50;;
11086;SDS011;5597;47.588;9.642;2023-03-11T14:27:55;1.47;;;1.30;;
11086;SDS011;5597;47.588;9.642;2023-03-11T14:30:26;2.50;;;1.30;;
11086;SDS011;5597;47.588;9.642;2023-03-11T14:32:55;1.90;;;1.60;;
11086;SDS011;5597;47.588;9.642;2023-03-11T14:35:30;1.50;;;1.37;;
11086;SDS011;5597;47.588;9.642;2023-03-11T14:37:57;2.00;;;1.53;;
11086;SDS011;5597;47.588;9.642;2023-03-11T14:43:06;1.80;;;1.27;;
11086;SDS011;5597;47.588;9.642;2023-03-11T14:45:33;1.50;;;1.30;;
11086;SDS011;5597;47.588;9.642;2023-03-11T14:50:33;1.90;;;1.70;;
11086;SDS011;5597;47.588;9.642;2023-03-11T14:55:34;1.97;;;1.53;;
11086;SDS011;5597;47.588;9.642;2023-03-11T14:58:13;1.60;;;1.50;;
11086;SDS011;5597;47.588;9.642;2023-03-11T15:01:03;1.40;;;1.30;;
11086;SDS011;5597;47.588;9.642;2023-03-11T15:03:39;1.37;;;1.20;;
11086;SDS011;5597;47.588;9.642;2023-03-11T15:06:17;1.20;;;1.10;;
11086;SDS011;5597;47.588;9.642;2023-03-11T15:08:45;1.67;;;1.20;;
11086;SDS011;5597;47.588;9.642;2023-03-11T15:11:20;1.93;;;1.30;;
11086;SDS011;5597;47.588;9.642;2023-03-11T15:13:49;1.20;;;1.10;;
11086;SDS011;5597;47.588;9.642;2023-03-11T15:21:51;1.93;;;1.50;;
11086;SDS011;5597;47.588;9.642;2023-03-11T15:24:23;1.33;;;1.23;;
11086;SDS011;5597;47.588;9.642;2023-03-11T15:26:58;1.30;;;1.20;;
11086;SDS011;5597;47.588;9.642;2023-03-11T15:29:27;1.40;;;1.30;;
11086;SDS011;5597;47.588;9.642;2023-03-11T15:31:53;1.50;;;1.40;;
11086;SDS011;5597;47.588;9.642;2023-03-11T15:34:23;1.47;;;1.27;;
11086;SDS011;5597;47.588;9.642;2023-03-11T15:36:58;1.30;;;1.20;;
11086;SDS011;5597;47.588;9.642;2023-03-11T15:44:34;1.80;;;1.63;;
11086;SDS011;5597;47.588;9.642;2023-03-11T15:47:14;2.67;;;2.20;;
11086;SDS011;5597;47.588;9.642;2023-03-11T15:49:41;5.33;;;3.07;;
11086;SDS011;5597;47.588;9.642;2023-03-11T15:52:07;4.80;;;3.70;;
11086;SDS011;5597;47.588;9.642;2023-03-11T15:54:33;3.80;;;2.70;;
11086;SDS011;5597;47.588;9.642;2023-03-11T15:56:59;2.83;;;2.23;;
11086;SDS011;5597;47.588;9.642;2023-03-11T15:59:26;2.40;;;1.90;;
11086;SDS011;5597;47.588;9.642;2023-03-11T16:01:53;1.97;;;1.73;;
11086;SDS011;5597;47.588;9.642;2023-03-11T16:04:19;1.93;;;1.57;;
11086;SDS011;5597;47.588;9.642;2023-03-11T16:06:46;1.73;;;1.63;;
11086;SDS011;5597;47.588;9.642;2023-03-11T16:09:13;2.67;;;1.90;;
11086;SDS011;5597;47.588;9.642;2023-03-11T16:11:39;2.13;;;1.70;;
11086;SDS011;5597;47.588;9.642;2023-03-11T16:14:08;1.73;;;1.60;;
11086;SDS011;5597;47.588;9.642;2023-03-11T16:16:39;2.20;;;2.00;;
11086;SDS011;5597;47.588;9.642;2023-03-11T16:19:05;2.17;;;1.70;;
11086;SDS011;5597;47.588;9.642;2023-03-11T16:21:34;2.27;;;1.97;;
11086;SDS011;5597;47.588;9.642;2023-03-11T16:24:03;2.27;;;1.97;;
11086;SDS011;5597;47.588;9.642;2023-03-11T16:26:30;2.37;;;2.03;;
11086;SDS011;5597;47.588;9.642;2023-03-11T16:28:56;1.90;;;1.80;;
11086;SDS011;5597;47.588;9.642;2023-03-11T16:31:22;2.33;;;2.13;;
11086;SDS011;5597;47.588;9.642;2023-03-11T16:33:48;3.13;;;2.40;;
11086;SDS011;5597;47.588;9.642;2023-03-11T16:36:13;3.23;;;2.40;;
11086;SDS011;5597;47.588;9.642;2023-03-11T16:38:46;2.60;;;2.40;;
11086;SDS011;5597;47.588;9.642;2023-03-11T16:41:13;2.10;;;1.90;;
11086;SDS011;5597;47.588;9.642;2023-03-11T16:43:39;2.60;;;2.10;;
11086;SDS011;5597;47.588;9.642;2023-03-11T16:46:05;2.43;;;2.07;;
11086;SDS011;5597;47.588;9.642;2023-03-11T16:48:31;2.13;;;1.80;;
11086;SDS011;5597;47.588;9.642;2023-03-11T16:50:56;2.47;;;2.17;;
11086;SDS011;5597;47.588;9.642;2023-03-11T16:53:22;2.77;;;2.30;;
11086;SDS011;5597;47.588;9.642;2023-03-11T16:55:50;2.10;;;1.90;;
11086;SDS011;5597;47.588;9.642;2023-03-11T16:58:16;2.40;;;2.20;;
11086;SDS011;5597;47.588;9.642;2023-03-11T17:00:41;2.33;;;2.07;;
11086;SDS011;5597;47.588;9.642;2023-03-11T17:03:11;2.40;;;2.20;;
11086;SDS011;5597;47.588;9.642;2023-03-11T17:05:40;2.60;;;2.40;;
11086;SDS011;5597;47.588;9.642;2023-03-11T17:08:06;2.97;;;2.60;;